Latest Coastal Weather Observations for Lord Howe Island

IDN60701

Issued at 5:55 am EST Friday 25 July 2014 (issued every 10 minutes, with the page automatically refreshed every 10 minutes)

About coastal observations | Map of coastal stations | Coastal observations for NSW | Marine services | Other Formats
Station Details ID: 200839 Name: LORD HOWE ISLAND AERO Lat: -31.54 Lon: 159.08 Height: 5.0 m
Data from the previous 72 hours. | See also: Recent months at Lord Howe Island
Date/Time
EST
Temp

°C
Wind Pressure Rain
since 9am
mm
Weather Cloud Vis
km
Sea
Height
m
Swell
Dir
 
Speed
knots
Gust
knots
hPa Trend Height
m
Period
s
Dir
25/05:30am 14.1 CALM 0 4 1026.8 R 0.0 Fine Mostly clear 20 - - - -
25/05:00am 13.9 N 3 6 1026.6 - 0.0 - - 10 - - - -
25/04:30am 15.1 N 3 7 1026.3 - 0.0 - - 10 - - - -
25/04:00am 16.4 N 5 8 1026.2 - 0.0 - Partly cloudy 10 - - - -
25/03:30am 17.1 N 5 9 1026.0 - 0.0 - Partly cloudy 10 - - - -
25/03:00am 17.0 NNE 6 9 1025.9 - 0.0 - Partly cloudy 10 - - - -
25/02:30am 16.4 N 6 8 1025.7 - 0.0 - - 10 - - - -
25/02:00am 16.3 NNE 6 8 1025.9 - 0.0 - Partly cloudy 10 - - - -
25/01:30am 16.7 NNE 6 10 1026.0 - 0.0 - Partly cloudy 10 - - - -
25/01:00am 16.1 N 3 5 1026.0 - 0.0 - Partly cloudy 10 - - - -
25/12:30am 16.4 NNE 5 9 1025.9 - 0.0 - - 10 - - - -
25/12:00am 14.6 NNE 4 5 1026.0 - 0.0 - - 10 - - - -
 
Date/Time
EST
Temp

°C
Wind Pressure Rain
since 9am
mm
Weather Cloud Vis
km
Sea
Height
m
Swell
Dir
 
Speed
knots
Gust
knots
hPa Trend Height
m
Period
s
Dir
24/11:30pm 14.8 NNE 3 4 1026.3 - 0.0 - - 10 - - - -
24/11:00pm 15.9 N 4 5 1026.3 - 0.0 - - 10 - - - -
24/10:30pm 16.4 NNE 5 9 1026.4 - 0.0 - Partly cloudy 10 - - - -
24/10:00pm 16.0 NE 5 7 1026.5 - 0.0 - Partly cloudy 10 - - - -
24/09:30pm 15.5 ENE 7 9 1026.5 - 0.0 - Partly cloudy 10 - - - -
24/09:00pm 15.5 ENE 7 9 1026.4 - 0.0 - - 10 - - - -
24/08:30pm 15.3 ENE 7 9 1026.2 - 0.0 - - 10 - - - -
24/08:00pm 15.2 NE 7 8 1026.0 - 0.0 - - 10 - - - -
24/07:30pm 15.1 NE 7 9 1025.8 - 0.0 - - 10 - - - -
24/07:00pm 15.1 ENE 7 9 1025.6 - 0.0 - - 10 - - - -
24/06:30pm 15.5 ENE 8 10 1025.2 - 0.0 - - 10 - - - -
24/06:00pm 15.5 ENE 8 10 1024.9 - 0.0 - - 10 - - - -
24/05:30pm 15.8 ENE 7 10 1025.0 - 0.0 - - 10 - - - -
24/05:00pm 15.4 E 5 8 1024.5 - 0.0 - - 10 - - - -
24/04:30pm 15.0 E 4 5 1024.5 - 0.0 - - 10 - - - -
24/04:00pm 15.7 ENE 5 7 1024.2 - 0.0 - - 10 - - - -
24/03:30pm 16.8 ENE 5 7 1024.0 - 0.0 - - 10 - - - -
24/03:00pm 16.5 ENE 5 7 1023.8 - 0.0 - - 10 - - - -
24/02:30pm 16.7 ENE 5 7 1024.1 R 0.0 Fine Mostly cloudy 30 - - - -
24/02:00pm 17.3 NE 5 7 1024.2 - 0.0 - Mostly clear 10 - - - -
24/01:30pm 18.1 ENE 4 6 1024.4 - 0.0 - Mostly clear 10 - - - -
24/01:00pm 17.7 ENE 6 7 1024.1 - 0.0 - Mostly clear 10 - - - -
24/12:30pm 17.6 ENE 7 8 1023.9 - 0.0 - Mostly clear 10 - - - -
24/12:00pm 17.7 ENE 7 10 1024.1 - 0.0 - Mostly clear 10 - - - -
24/11:30am 17.5 ENE 7 9 1024.5 R 0.0 Fine Partly cloudy 30 - - - -
24/11:00am 17.4 E 7 9 1025.1 - 0.0 - Mostly clear 10 - - - -
24/10:30am 17.1 E 7 10 1025.4 - 0.0 - Mostly clear 10 - - - -
24/10:00am 17.0 E 8 10 1025.5 - 0.0 - Mostly clear 10 - - - -
24/09:30am 17.2 E 6 9 1025.3 - 0.0 - Mostly clear 10 - - - -
24/09:00am 16.9 E 5 7 1025.2 - 0.0 - Mostly clear 10 - - - -
24/08:30am 16.3 SE 4 7 1024.9 R 4.6 Fine Partly cloudy 30 - - - -
24/08:00am 15.2 SE 3 5 1024.6 - 4.6 - Mostly clear 10 - - - -
24/07:30am 15.1 CALM 0 0 1024.3 - 4.6 - Mostly clear 10 - - - -
24/07:00am 13.2 SW 3 5 1024.0 - 4.6 - Mostly clear 10 - - - -
24/06:30am 14.3 SE 7 8 1023.4 - 4.6 - Mostly clear 10 - - - -
24/06:00am 13.7 SE 6 7 1023.0 - 4.6 - Mostly clear 10 - - - -
24/05:30am 12.9 SSE 5 8 1022.9 R 4.6 Showers Mostly cloudy 30 - - - -
24/05:00am 13.5 SSE 7 8 1022.7 - 4.6 - Partly cloudy 10 - - - -
24/04:30am 12.8 ESE 4 6 1022.6 - 4.6 - Partly cloudy 10 - - - -
24/04:05am 13.2 ESE 7 8 1022.6 - 4.4 - Partly cloudy 10 - - - -
24/04:00am 12.9 ESE 6 8 1022.6 - 4.4 - Partly cloudy 10 - - - -
24/03:42am 13.3 ESE 7 10 1022.5 - 2.0 - Partly cloudy 5 - - - -
24/03:30am 13.7 SE 7 9 1022.3 - 1.2 - Partly cloudy 10 - - - -
24/03:00am 11.4 CALM 0 0 1022.2 - 1.0 - Partly cloudy 10 - - - -
24/02:30am 13.1 SE 4 6 1022.1 - 1.0 - Mostly cloudy 10 - - - -
24/02:00am 13.9 SSE 5 7 1022.1 - 1.0 - - 10 - - - -
24/01:30am 13.8 ESE 5 9 1022.2 - 1.0 - Partly cloudy 10 - - - -
24/01:00am 14.5 ESE 5 8 1022.4 - 1.0 - Partly cloudy 10 - - - -
24/12:30am 14.6 SE 4 6 1022.5 - 1.0 - Partly cloudy 10 - - - -
24/12:00am 11.8 ESE 2 5 1022.7 - 1.0 - Partly cloudy 10 - - - -
 
Date/Time
EST
Temp

°C
Wind Pressure Rain
since 9am
mm
Weather Cloud Vis
km
Sea
Height
m
Swell
Dir
 
Speed
knots
Gust
knots
hPa Trend Height
m
Period
s
Dir
23/11:30pm 11.9 SSE 3 6 1022.9 - 1.0 - Mostly clear 10 - - - -
23/11:00pm 11.9 SE 2 6 1022.9 - 1.0 - Partly cloudy 10 - - - -
23/10:30pm 10.2 S 3 5 1023.1 - 1.0 - Partly cloudy 10 - - - -
23/10:00pm 10.3 S 1 4 1023.2 - 1.0 - - 10 - - - -
23/09:30pm 11.0 CALM 0 0 1023.3 - 1.0 - - 10 - - - -
23/09:00pm 12.9 S 2 5 1023.1 - 1.0 - Partly cloudy 10 - - - -
23/08:30pm 13.6 S 3 5 1022.9 - 1.0 - Partly cloudy 10 - - - -
23/08:00pm 15.0 SE 6 7 1022.7 - 1.0 - - 10 - - - -
23/07:30pm 13.9 SE 4 7 1022.5 - 1.0 - Partly cloudy 10 - - - -
23/07:00pm 13.9 ESE 2 6 1022.2 - 1.0 - Partly cloudy 10 - - - -
23/06:30pm 14.8 SSE 5 7 1022.0 - 1.0 - - 10 - - - -
23/06:00pm 14.7 S 3 5 1021.6 - 1.0 - Partly cloudy 10 - - - -
23/05:30pm 14.1 ESE 1 4 1021.3 - 1.0 - Partly cloudy 10 - - - -
23/05:00pm 14.4 SSE 5 8 1021.2 - 1.0 - Partly cloudy 10 - - - -
23/04:30pm 15.6 SSE 4 7 1021.0 - 1.0 - Partly cloudy 10 - - - -
23/04:00pm 16.1 ESE 6 11 1020.9 - 1.0 - - 10 - - - -
23/03:30pm 16.5 E 6 10 1020.7 - 1.0 - - 10 - - - -
23/03:00pm 16.1 SSE 3 5 1020.7 - 1.0 - Partly cloudy 10 - - - -
23/02:30pm 16.8 S 5 15 1020.6 R 1.0 Distant precip. Partly cloudy 30 - - - -
23/02:00pm 16.8 SSE 5 10 1020.4 - 1.0 - Mostly clear 10 - - - -
23/01:30pm 16.4 W 5 9 1020.2 - 1.0 - Mostly clear 10 - - - -
23/01:00pm 16.2 ENE 3 6 1020.4 - 1.0 - Mostly clear 10 - - - -
23/12:30pm 15.3 SW 8 17 1020.6 - 1.0 - Mostly clear 10 - - - -
23/12:00pm 16.9 E 9 12 1020.7 - 1.0 - Mostly clear 10 - - - -
23/11:30am 16.7 E 11 15 1021.2 R 1.0 Distant precip. Partly cloudy 30 - - - -
23/11:00am 16.3 E 11 15 1021.5 - 1.0 - Mostly clear 10 - - - -
23/10:30am 15.2 E 2 5 1021.9 - 0.8 - Mostly clear 10 - - - -
23/10:00am 15.4 E 10 16 1022.2 - 0.2 Showers Mostly clear 7 - - - -
23/09:30am 16.8 E 11 15 1022.1 - 0.0 - Mostly clear 10 - - - -
23/09:00am 16.3 SE 6 13 1022.2 - 0.0 - Mostly clear 10 - - - -
23/08:30am 16.2 SE 7 13 1021.9 R 4.2 Fine Mostly clear 30 - - - -
23/08:00am 15.5 SE 6 10 1021.6 - 4.2 - Mostly clear 10 - - - -
23/07:30am 15.0 ESE 6 11 1021.4 - 4.2 - Mostly clear 10 - - - -
23/07:00am 14.5 SSE 6 9 1021.1 - 4.2 - Mostly clear 10 - - - -
23/06:30am 13.9 SE 5 8 1020.9 - 4.2 - Mostly clear 10 - - - -
23/06:00am 12.9 E 5 6 1020.5 - 4.2 - Mostly clear 10 - - - -
23/05:30am 13.0 E 5 7 1020.3 R 4.2 Recent precip. Partly cloudy 30 - - - -
23/05:00am 12.9 E 6 7 1019.9 - 4.2 - Partly cloudy 10 - - - -
23/04:57am 12.9 E 5 7 1019.9 - 4.2 - Partly cloudy 10 - - - -
23/04:40am 13.3 SW 3 7 1019.8 - 4.0 - Partly cloudy 6 - - - -
23/04:30am 13.2 CALM 0 3 1019.7 - 3.4 - Partly cloudy 10 - - - -
23/04:00am 12.9 E 5 6 1019.4 - 3.4 - Partly cloudy 10 - - - -
23/03:45am 13.1 ESE 5 9 1019.2 - 3.4 - Partly cloudy 10 - - - -
23/03:34am 13.3 ESE 6 10 1019.2 - 3.4 - Partly cloudy 6 - - - -
23/03:30am 13.5 SE 7 15 1019.3 - 3.4 - Partly cloudy 9 - - - -
23/03:00am 13.3 S 4 7 1019.1 - 3.4 - Partly cloudy 10 - - - -
23/02:30am 13.9 SE 5 8 1019.1 - 3.4 - Partly cloudy 10 - - - -
23/02:00am 14.0 SE 4 8 1019.2 - 3.4 - Partly cloudy 10 - - - -
23/01:30am 14.2 SE 5 11 1019.4 - 3.4 - Partly cloudy 10 - - - -
23/01:00am 13.9 SE 4 9 1019.5 - 3.4 - Partly cloudy 10 - - - -
23/12:30am 13.6 SE 5 9 1019.7 - 3.4 - Partly cloudy 10 - - - -
23/12:07am 13.8 ESE 5 16 1019.8 - 2.6 - Partly cloudy 5 - - - -
23/12:06am 13.9 ESE 5 16 1019.8 - 1.8 - Partly cloudy 10 - - - -
23/12:00am 13.8 SE 3 6 1019.7 - 1.6 - Partly cloudy 10 - - - -
 
Date/Time
EST
Temp

°C
Wind Pressure Rain
since 9am
mm
Weather Cloud Vis
km
Sea
Height
m
Swell
Dir
 
Speed
knots
Gust
knots
hPa Trend Height
m
Period
s
Dir
22/11:46pm 14.2 SE 7 12 1019.9 - 1.0 - Partly cloudy 6 - - - -
22/11:30pm 15.2 ESE 5 12 1019.7 - 0.2 - Mostly clear 10 - - - -
22/11:00pm 14.7 SSE 5 14 1019.9 - 0.2 - Partly cloudy 10 - - - -
22/10:30pm 14.6 SW 5 13 1020.1 - 0.2 - Partly cloudy 10 - - - -
22/10:00pm 14.7 SSE 4 8 1020.2 - 0.2 - Partly cloudy 10 - - - -
22/09:30pm 15.1 SSW 6 13 1020.3 - 0.2 - Partly cloudy 10 - - - -
22/09:00pm 15.1 SSW 7 11 1020.2 - 0.2 - Partly cloudy 10 - - - -
22/08:30pm 14.9 SSW 8 13 1020.0 - 0.2 - Cloudy 10 - - - -
22/08:00pm 15.0 S 4 7 1020.0 - 0.2 - Partly cloudy 10 - - - -
22/07:30pm 15.4 S 7 11 1020.0 - 0.2 - Partly cloudy 10 - - - -
22/07:00pm 15.1 SSE 5 7 1020.0 - 0.2 - - 10 - - - -
22/06:30pm 15.3 SSW 7 14 1019.9 - 0.2 - Partly cloudy 10 - - - -
22/06:00pm 14.7 S 3 6 1019.7 - 0.2 - Partly cloudy 10 - - - -
22/05:30pm 15.0 S 5 9 1019.4 - 0.2 - - 10 - - - -
22/05:00pm 15.3 S 6 9 1019.1 - 0.2 - - 10 - - - -
22/04:30pm 15.3 SSW 9 15 1018.9 - 0.2 - - 10 - - - -
22/04:00pm 15.9 SSW 9 14 1018.8 - 0.2 - - 10 - - - -
22/03:30pm 16.0 SSW 10 18 1018.6 - 0.2 - Partly cloudy 10 - - - -
22/03:00pm 16.8 SSW 9 16 1018.5 - 0.2 - Partly cloudy 10 - - - -
22/02:30pm 17.2 SSW 9 13 1018.5 F 0.2 Distant precip. Partly cloudy 30 - - - -
22/02:00pm 16.8 SSW 9 15 1018.4 - 0.2 - Mostly clear 10 - - - -
22/01:30pm 17.3 SSW 9 15 1018.3 - 0.2 - Mostly clear 10 - - - -
22/01:00pm 17.5 SSW 8 14 1018.5 - 0.2 - Mostly clear 10 - - - -
22/12:30pm 17.5 SSW 9 15 1018.8 - 0.0 - Mostly clear 10 - - - -
22/12:00pm 17.7 SSW 10 18 1019.1 - 0.0 - Mostly clear 10 - - - -
22/11:30am 17.5 SW 9 15 1019.6 F 0.0 Fine Partly cloudy 30 - - - -
22/11:00am 17.5 SW 8 11 1020.1 - 0.0 - Mostly clear 10 - - - -
22/10:30am 17.3 SSW 8 13 1020.7 - 0.0 - Mostly clear 10 - - - -
22/10:00am 17.1 SSW 7 12 1021.0 - 0.0 - Mostly clear 10 - - - -
22/09:30am 16.6 SSW 9 17 1021.4 - 0.0 Showers Mostly clear 10 - - - -
22/09:00am 17.1 SSW 6 9 1021.3 - 0.0 - Mostly clear 10 - - - -
22/08:30am 16.8 SSW 8 11 1021.2 R 0.4 Distant precip. Mostly clear 30 - - - -
22/08:00am 16.0 SSW 8 11 1021.0 - 0.4 - Mostly clear 10 - - - -
22/07:30am 15.5 S 5 10 1020.8 - 0.4 - Mostly clear 10 - - - -
22/07:00am 15.1 S 4 7 1020.7 - 0.4 - Mostly clear 10 - - - -
22/06:30am 14.3 SSE 3 6 1020.6 - 0.4 - Mostly clear 10 - - - -
22/06:00am 14.1 S 3 7 1020.3 - 0.4 - Mostly clear 10 - - - -
22/05:30am 14.5 S 4 6 1020.0 F 0.4 Fine Mostly clear 30 - - - -

Other Formats:

Comma delimited format used in spreadsheet applications
http://www.bom.gov.au/fwo/IDN60701/IDN60701.94995.axf

JavaScript Object Notation format (JSON) in row-major order
http://www.bom.gov.au/fwo/IDN60701/IDN60701.94995.json